sensor_id;sensor_type;location;lat;lon;timestamp;P1;durP1;ratioP1;P2;durP2;ratioP2
8871;SDS011;4472;52.092;9.820;2022-08-20T00:01:57;2.30;;;2.20;;
8871;SDS011;4472;52.092;9.820;2022-08-20T00:04:44;2.63;;;2.47;;
8871;SDS011;4472;52.092;9.820;2022-08-20T00:07:31;2.63;;;2.17;;
8871;SDS011;4472;52.092;9.820;2022-08-20T00:10:19;2.80;;;2.60;;
8871;SDS011;4472;52.092;9.820;2022-08-20T00:13:09;3.10;;;2.37;;
8871;SDS011;4472;52.092;9.820;2022-08-20T00:15:59;3.00;;;2.80;;
8871;SDS011;4472;52.092;9.820;2022-08-20T00:18:47;3.13;;;2.83;;
8871;SDS011;4472;52.092;9.820;2022-08-20T00:21:34;2.97;;;2.70;;
8871;SDS011;4472;52.092;9.820;2022-08-20T00:24:22;3.87;;;2.90;;
8871;SDS011;4472;52.092;9.820;2022-08-20T00:27:09;3.53;;;2.90;;
8871;SDS011;4472;52.092;9.820;2022-08-20T00:29:56;3.20;;;2.87;;
8871;SDS011;4472;52.092;9.820;2022-08-20T00:32:46;2.80;;;2.60;;
8871;SDS011;4472;52.092;9.820;2022-08-20T00:35:36;3.13;;;2.63;;
8871;SDS011;4472;52.092;9.820;2022-08-20T00:38:26;3.93;;;2.40;;
8871;SDS011;4472;52.092;9.820;2022-08-20T00:41:15;5.37;;;2.60;;
8871;SDS011;4472;52.092;9.820;2022-08-20T00:44:06;2.70;;;2.50;;
8871;SDS011;4472;52.092;9.820;2022-08-20T00:46:56;2.83;;;2.60;;
8871;SDS011;4472;52.092;9.820;2022-08-20T00:49:44;2.57;;;2.37;;
8871;SDS011;4472;52.092;9.820;2022-08-20T00:52:32;3.37;;;2.40;;
8871;SDS011;4472;52.092;9.820;2022-08-20T00:55:20;3.60;;;2.90;;
8871;SDS011;4472;52.092;9.820;2022-08-20T00:58:09;3.80;;;2.50;;
8871;SDS011;4472;52.092;9.820;2022-08-20T01:00:56;3.83;;;2.63;;
8871;SDS011;4472;52.092;9.820;2022-08-20T01:06:17;3.63;;;2.50;;
8871;SDS011;4472;52.092;9.820;2022-08-20T01:09:05;3.43;;;2.77;;
8871;SDS011;4472;52.092;9.820;2022-08-20T01:11:53;3.00;;;2.70;;
8871;SDS011;4472;52.092;9.820;2022-08-20T01:14:40;4.07;;;2.87;;
8871;SDS011;4472;52.092;9.820;2022-08-20T01:17:30;2.83;;;2.63;;
8871;SDS011;4472;52.092;9.820;2022-08-20T01:20:22;2.80;;;2.60;;
8871;SDS011;4472;52.092;9.820;2022-08-20T01:23:14;2.73;;;2.53;;
8871;SDS011;4472;52.092;9.820;2022-08-20T01:26:21;2.70;;;2.50;;
8871;SDS011;4472;52.092;9.820;2022-08-20T01:29:11;3.33;;;2.63;;
8871;SDS011;4472;52.092;9.820;2022-08-20T01:32:01;2.70;;;2.50;;
8871;SDS011;4472;52.092;9.820;2022-08-20T01:34:48;5.53;;;2.90;;
8871;SDS011;4472;52.092;9.820;2022-08-20T01:37:35;4.20;;;2.60;;
8871;SDS011;4472;52.092;9.820;2022-08-20T01:40:26;2.57;;;2.37;;
8871;SDS011;4472;52.092;9.820;2022-08-20T01:43:31;2.80;;;2.50;;
8871;SDS011;4472;52.092;9.820;2022-08-20T01:46:20;2.77;;;2.60;;
8871;SDS011;4472;52.092;9.820;2022-08-20T01:49:10;4.40;;;2.63;;
8871;SDS011;4472;52.092;9.820;2022-08-20T01:52:01;2.93;;;2.67;;
8871;SDS011;4472;52.092;9.820;2022-08-20T01:54:52;2.60;;;2.40;;
8871;SDS011;4472;52.092;9.820;2022-08-20T01:57:40;2.50;;;2.30;;
8871;SDS011;4472;52.092;9.820;2022-08-20T02:00:29;2.80;;;2.60;;
8871;SDS011;4472;52.092;9.820;2022-08-20T02:03:16;3.33;;;2.43;;
8871;SDS011;4472;52.092;9.820;2022-08-20T02:06:04;2.93;;;2.70;;
8871;SDS011;4472;52.092;9.820;2022-08-20T02:08:52;2.63;;;2.43;;
8871;SDS011;4472;52.092;9.820;2022-08-20T02:11:41;2.73;;;2.37;;
8871;SDS011;4472;52.092;9.820;2022-08-20T02:14:28;2.93;;;2.50;;
8871;SDS011;4472;52.092;9.820;2022-08-20T02:17:17;2.77;;;2.57;;
8871;SDS011;4472;52.092;9.820;2022-08-20T02:20:08;2.90;;;2.70;;
8871;SDS011;4472;52.092;9.820;2022-08-20T02:22:58;2.73;;;2.53;;
8871;SDS011;4472;52.092;9.820;2022-08-20T02:25:46;3.07;;;2.77;;
8871;SDS011;4472;52.092;9.820;2022-08-20T02:28:34;2.63;;;2.43;;
8871;SDS011;4472;52.092;9.820;2022-08-20T02:31:21;2.97;;;2.77;;
8871;SDS011;4472;52.092;9.820;2022-08-20T02:34:11;2.67;;;2.47;;
8871;SDS011;4472;52.092;9.820;2022-08-20T02:36:59;2.60;;;2.40;;
8871;SDS011;4472;52.092;9.820;2022-08-20T02:39:46;3.50;;;2.60;;
8871;SDS011;4472;52.092;9.820;2022-08-20T02:42:34;2.50;;;2.30;;
8871;SDS011;4472;52.092;9.820;2022-08-20T02:45:23;3.10;;;2.63;;
8871;SDS011;4472;52.092;9.820;2022-08-20T02:48:11;2.77;;;2.50;;
8871;SDS011;4472;52.092;9.820;2022-08-20T02:51:06;3.17;;;2.33;;
8871;SDS011;4472;52.092;9.820;2022-08-20T02:53:54;3.03;;;2.57;;
8871;SDS011;4472;52.092;9.820;2022-08-20T02:56:41;2.53;;;2.37;;
8871;SDS011;4472;52.092;9.820;2022-08-20T02:59:28;3.90;;;2.57;;
8871;SDS011;4472;52.092;9.820;2022-08-20T03:02:16;3.07;;;2.77;;
8871;SDS011;4472;52.092;9.820;2022-08-20T03:05:03;2.33;;;2.23;;
8871;SDS011;4472;52.092;9.820;2022-08-20T03:07:52;2.80;;;2.60;;
8871;SDS011;4472;52.092;9.820;2022-08-20T03:10:41;2.57;;;2.40;;
8871;SDS011;4472;52.092;9.820;2022-08-20T03:13:30;3.53;;;2.60;;
8871;SDS011;4472;52.092;9.820;2022-08-20T03:16:17;2.73;;;2.60;;
8871;SDS011;4472;52.092;9.820;2022-08-20T03:19:04;3.87;;;2.73;;
8871;SDS011;4472;52.092;9.820;2022-08-20T03:21:52;2.80;;;2.47;;
8871;SDS011;4472;52.092;9.820;2022-08-20T03:24:41;2.60;;;2.40;;
8871;SDS011;4472;52.092;9.820;2022-08-20T03:27:28;3.27;;;2.97;;
8871;SDS011;4472;52.092;9.820;2022-08-20T03:30:16;3.63;;;3.00;;
8871;SDS011;4472;52.092;9.820;2022-08-20T03:33:04;4.77;;;3.07;;
8871;SDS011;4472;52.092;9.820;2022-08-20T03:35:51;3.67;;;2.90;;
8871;SDS011;4472;52.092;9.820;2022-08-20T03:38:39;2.50;;;2.40;;
8871;SDS011;4472;52.092;9.820;2022-08-20T03:41:27;3.17;;;2.80;;
8871;SDS011;4472;52.092;9.820;2022-08-20T03:44:16;2.60;;;2.40;;
8871;SDS011;4472;52.092;9.820;2022-08-20T03:47:04;2.70;;;2.60;;
8871;SDS011;4472;52.092;9.820;2022-08-20T03:49:56;2.97;;;2.73;;
8871;SDS011;4472;52.092;9.820;2022-08-20T03:52:44;2.97;;;2.77;;
8871;SDS011;4472;52.092;9.820;2022-08-20T03:55:31;4.17;;;2.67;;
8871;SDS011;4472;52.092;9.820;2022-08-20T03:58:20;2.73;;;2.50;;
8871;SDS011;4472;52.092;9.820;2022-08-20T04:01:08;3.43;;;2.53;;
8871;SDS011;4472;52.092;9.820;2022-08-20T04:03:55;2.50;;;2.30;;
8871;SDS011;4472;52.092;9.820;2022-08-20T04:06:43;2.93;;;2.70;;
8871;SDS011;4472;52.092;9.820;2022-08-20T04:09:31;2.67;;;2.37;;
8871;SDS011;4472;52.092;9.820;2022-08-20T04:12:18;2.97;;;2.73;;
8871;SDS011;4472;52.092;9.820;2022-08-20T04:15:09;2.90;;;2.67;;
8871;SDS011;4472;52.092;9.820;2022-08-20T04:17:57;2.90;;;2.70;;
8871;SDS011;4472;52.092;9.820;2022-08-20T04:20:45;2.97;;;2.77;;
8871;SDS011;4472;52.092;9.820;2022-08-20T04:23:33;3.27;;;2.70;;
8871;SDS011;4472;52.092;9.820;2022-08-20T04:26:20;4.50;;;2.67;;
8871;SDS011;4472;52.092;9.820;2022-08-20T04:29:07;3.07;;;2.80;;
8871;SDS011;4472;52.092;9.820;2022-08-20T04:31:56;2.70;;;2.50;;
8871;SDS011;4472;52.092;9.820;2022-08-20T04:34:43;2.70;;;2.50;;
8871;SDS011;4472;52.092;9.820;2022-08-20T04:37:30;3.13;;;2.83;;
8871;SDS011;4472;52.092;9.820;2022-08-20T04:40:18;5.67;;;2.90;;
8871;SDS011;4472;52.092;9.820;2022-08-20T04:43:23;4.10;;;2.60;;
8871;SDS011;4472;52.092;9.820;2022-08-20T04:46:11;3.97;;;2.70;;
8871;SDS011;4472;52.092;9.820;2022-08-20T04:49:00;3.73;;;2.83;;
8871;SDS011;4472;52.092;9.820;2022-08-20T04:51:48;6.53;;;2.97;;
8871;SDS011;4472;52.092;9.820;2022-08-20T04:54:35;3.60;;;2.80;;
8871;SDS011;4472;52.092;9.820;2022-08-20T04:57:22;5.67;;;3.27;;
8871;SDS011;4472;52.092;9.820;2022-08-20T05:00:12;3.03;;;2.73;;
8871;SDS011;4472;52.092;9.820;2022-08-20T05:03:01;3.00;;;2.70;;
8871;SDS011;4472;52.092;9.820;2022-08-20T05:05:52;3.67;;;3.00;;
8871;SDS011;4472;52.092;9.820;2022-08-20T05:08:40;3.03;;;2.83;;
8871;SDS011;4472;52.092;9.820;2022-08-20T05:11:28;3.10;;;2.90;;
8871;SDS011;4472;52.092;9.820;2022-08-20T05:14:15;3.60;;;3.10;;
8871;SDS011;4472;52.092;9.820;2022-08-20T05:17:02;4.10;;;3.00;;
8871;SDS011;4472;52.092;9.820;2022-08-20T05:19:51;2.83;;;2.63;;
8871;SDS011;4472;52.092;9.820;2022-08-20T05:22:39;5.03;;;2.70;;
8871;SDS011;4472;52.092;9.820;2022-08-20T05:25:27;5.37;;;2.97;;
8871;SDS011;4472;52.092;9.820;2022-08-20T05:28:16;5.43;;;3.30;;
8871;SDS011;4472;52.092;9.820;2022-08-20T05:31:05;6.00;;;3.60;;
8871;SDS011;4472;52.092;9.820;2022-08-20T05:33:53;3.77;;;3.13;;
8871;SDS011;4472;52.092;9.820;2022-08-20T05:36:42;3.40;;;3.03;;
8871;SDS011;4472;52.092;9.820;2022-08-20T05:39:33;3.53;;;3.10;;
8871;SDS011;4472;52.092;9.820;2022-08-20T05:42:21;3.67;;;3.37;;
8871;SDS011;4472;52.092;9.820;2022-08-20T05:45:08;4.80;;;2.93;;
8871;SDS011;4472;52.092;9.820;2022-08-20T05:47:56;3.47;;;3.23;;
8871;SDS011;4472;52.092;9.820;2022-08-20T05:50:44;4.23;;;3.83;;
8871;SDS011;4472;52.092;9.820;2022-08-20T05:53:33;4.13;;;3.80;;
8871;SDS011;4472;52.092;9.820;2022-08-20T05:56:23;4.37;;;3.57;;
8871;SDS011;4472;52.092;9.820;2022-08-20T05:59:10;8.60;;;5.33;;
8871;SDS011;4472;52.092;9.820;2022-08-20T06:01:58;7.97;;;5.60;;
8871;SDS011;4472;52.092;9.820;2022-08-20T06:04:45;7.33;;;6.63;;
8871;SDS011;4472;52.092;9.820;2022-08-20T06:07:31;7.87;;;7.07;;
8871;SDS011;4472;52.092;9.820;2022-08-20T06:10:18;8.03;;;6.80;;
8871;SDS011;4472;52.092;9.820;2022-08-20T06:13:07;8.57;;;7.77;;
8871;SDS011;4472;52.092;9.820;2022-08-20T06:15:54;9.40;;;8.50;;
8871;SDS011;4472;52.092;9.820;2022-08-20T06:18:42;8.70;;;7.90;;
8871;SDS011;4472;52.092;9.820;2022-08-20T06:21:29;8.70;;;7.90;;
8871;SDS011;4472;52.092;9.820;2022-08-20T06:24:16;8.40;;;7.40;;
8871;SDS011;4472;52.092;9.820;2022-08-20T06:27:04;11.10;;;8.00;;
8871;SDS011;4472;52.092;9.820;2022-08-20T06:29:53;9.33;;;7.73;;
8871;SDS011;4472;52.092;9.820;2022-08-20T06:32:41;9.77;;;8.77;;
8871;SDS011;4472;52.092;9.820;2022-08-20T06:35:28;11.33;;;7.70;;
8871;SDS011;4472;52.092;9.820;2022-08-20T06:38:15;11.10;;;8.97;;
8871;SDS011;4472;52.092;9.820;2022-08-20T06:41:02;10.47;;;9.40;;
8871;SDS011;4472;52.092;9.820;2022-08-20T06:43:50;14.67;;;12.33;;
8871;SDS011;4472;52.092;9.820;2022-08-20T06:46:39;12.43;;;11.13;;
8871;SDS011;4472;52.092;9.820;2022-08-20T06:49:27;11.30;;;10.20;;
8871;SDS011;4472;52.092;9.820;2022-08-20T06:52:14;14.30;;;11.00;;
8871;SDS011;4472;52.092;9.820;2022-08-20T06:55:02;15.17;;;12.93;;
8871;SDS011;4472;52.092;9.820;2022-08-20T06:57:57;11.87;;;10.67;;
8871;SDS011;4472;52.092;9.820;2022-08-20T07:00:45;13.23;;;11.10;;
8871;SDS011;4472;52.092;9.820;2022-08-20T07:03:34;12.00;;;10.60;;
8871;SDS011;4472;52.092;9.820;2022-08-20T07:06:22;13.20;;;10.77;;
8871;SDS011;4472;52.092;9.820;2022-08-20T07:09:11;13.70;;;11.07;;
8871;SDS011;4472;52.092;9.820;2022-08-20T07:11:58;12.30;;;9.57;;
8871;SDS011;4472;52.092;9.820;2022-08-20T07:14:45;14.67;;;10.97;;
8871;SDS011;4472;52.092;9.820;2022-08-20T07:17:32;13.40;;;10.37;;
8871;SDS011;4472;52.092;9.820;2022-08-20T07:20:22;17.57;;;10.97;;
8871;SDS011;4472;52.092;9.820;2022-08-20T07:23:09;21.17;;;12.47;;
8871;SDS011;4472;52.092;9.820;2022-08-20T07:25:56;18.07;;;13.50;;
8871;SDS011;4472;52.092;9.820;2022-08-20T07:28:44;19.03;;;14.10;;
8871;SDS011;4472;52.092;9.820;2022-08-20T07:31:32;16.50;;;13.17;;
8871;SDS011;4472;52.092;9.820;2022-08-20T07:34:38;21.47;;;17.50;;
8871;SDS011;4472;52.092;9.820;2022-08-20T07:37:27;18.80;;;16.80;;
8871;SDS011;4472;52.092;9.820;2022-08-20T07:40:15;19.13;;;17.10;;
8871;SDS011;4472;52.092;9.820;2022-08-20T07:43:06;19.40;;;17.30;;
8871;SDS011;4472;52.092;9.820;2022-08-20T07:45:55;20.77;;;17.83;;
8871;SDS011;4472;52.092;9.820;2022-08-20T07:48:45;19.83;;;16.00;;
8871;SDS011;4472;52.092;9.820;2022-08-20T07:51:35;22.00;;;18.10;;
8871;SDS011;4472;52.092;9.820;2022-08-20T07:54:24;20.30;;;18.13;;
8871;SDS011;4472;52.092;9.820;2022-08-20T07:57:12;22.03;;;18.47;;
8871;SDS011;4472;52.092;9.820;2022-08-20T08:00:02;20.63;;;17.70;;
8871;SDS011;4472;52.092;9.820;2022-08-20T08:02:52;22.63;;;17.90;;
8871;SDS011;4472;52.092;9.820;2022-08-20T08:05:40;21.00;;;18.17;;
8871;SDS011;4472;52.092;9.820;2022-08-20T08:08:31;23.27;;;18.37;;
8871;SDS011;4472;52.092;9.820;2022-08-20T08:11:20;20.13;;;17.77;;
8871;SDS011;4472;52.092;9.820;2022-08-20T08:14:10;21.50;;;16.63;;
8871;SDS011;4472;52.092;9.820;2022-08-20T08:16:59;23.97;;;19.07;;
8871;SDS011;4472;52.092;9.820;2022-08-20T08:19:49;20.33;;;17.63;;
8871;SDS011;4472;52.092;9.820;2022-08-20T08:22:37;20.97;;;18.57;;
8871;SDS011;4472;52.092;9.820;2022-08-20T08:25:27;21.00;;;18.77;;
8871;SDS011;4472;52.092;9.820;2022-08-20T08:28:16;27.00;;;19.53;;
8871;SDS011;4472;52.092;9.820;2022-08-20T08:31:03;21.13;;;18.80;;
8871;SDS011;4472;52.092;9.820;2022-08-20T08:33:51;19.13;;;17.03;;
8871;SDS011;4472;52.092;9.820;2022-08-20T08:36:38;19.20;;;15.63;;
8871;SDS011;4472;52.092;9.820;2022-08-20T08:39:25;18.97;;;15.30;;
8871;SDS011;4472;52.092;9.820;2022-08-20T08:42:20;18.57;;;14.27;;
8871;SDS011;4472;52.092;9.820;2022-08-20T08:45:16;16.10;;;13.27;;
8871;SDS011;4472;52.092;9.820;2022-08-20T08:48:05;18.83;;;15.30;;
8871;SDS011;4472;52.092;9.820;2022-08-20T08:50:52;13.63;;;11.10;;
8871;SDS011;4472;52.092;9.820;2022-08-20T08:53:47;15.77;;;14.07;;
8871;SDS011;4472;52.092;9.820;2022-08-20T08:56:39;15.77;;;13.90;;
8871;SDS011;4472;52.092;9.820;2022-08-20T08:59:28;14.53;;;13.10;;
8871;SDS011;4472;52.092;9.820;2022-08-20T09:02:19;13.70;;;12.30;;
8871;SDS011;4472;52.092;9.820;2022-08-20T09:05:11;17.07;;;12.63;;
8871;SDS011;4472;52.092;9.820;2022-08-20T09:08:00;19.43;;;17.33;;
8871;SDS011;4472;52.092;9.820;2022-08-20T09:10:59;18.80;;;16.63;;
8871;SDS011;4472;52.092;9.820;2022-08-20T09:13:48;20.20;;;16.20;;
8871;SDS011;4472;52.092;9.820;2022-08-20T09:16:39;24.37;;;15.67;;
8871;SDS011;4472;52.092;9.820;2022-08-20T09:19:30;18.53;;;15.40;;
8871;SDS011;4472;52.092;9.820;2022-08-20T09:22:30;18.50;;;16.50;;
8871;SDS011;4472;52.092;9.820;2022-08-20T09:25:18;19.13;;;15.40;;
8871;SDS011;4472;52.092;9.820;2022-08-20T09:28:05;16.83;;;15.03;;
8871;SDS011;4472;52.092;9.820;2022-08-20T09:30:52;17.80;;;16.00;;
8871;SDS011;4472;52.092;9.820;2022-08-20T09:33:39;17.67;;;15.87;;
8871;SDS011;4472;52.092;9.820;2022-08-20T09:36:28;20.50;;;16.63;;
8871;SDS011;4472;52.092;9.820;2022-08-20T09:39:15;17.90;;;15.87;;
8871;SDS011;4472;52.092;9.820;2022-08-20T09:42:06;17.33;;;15.57;;
8871;SDS011;4472;52.092;9.820;2022-08-20T09:44:54;19.13;;;15.87;;
8871;SDS011;4472;52.092;9.820;2022-08-20T09:47:41;22.13;;;16.50;;
8871;SDS011;4472;52.092;9.820;2022-08-20T09:50:30;17.57;;;14.70;;
8871;SDS011;4472;52.092;9.820;2022-08-20T09:53:26;17.50;;;15.60;;
8871;SDS011;4472;52.092;9.820;2022-08-20T09:56:13;20.17;;;17.30;;
8871;SDS011;4472;52.092;9.820;2022-08-20T09:59:01;21.77;;;16.77;;
8871;SDS011;4472;52.092;9.820;2022-08-20T10:01:49;16.47;;;14.77;;
8871;SDS011;4472;52.092;9.820;2022-08-20T10:04:36;14.83;;;13.27;;
8871;SDS011;4472;52.092;9.820;2022-08-20T10:07:23;15.07;;;12.97;;
8871;SDS011;4472;52.092;9.820;2022-08-20T10:10:12;13.90;;;12.33;;
8871;SDS011;4472;52.092;9.820;2022-08-20T10:13:00;17.13;;;13.93;;
8871;SDS011;4472;52.092;9.820;2022-08-20T10:15:47;15.77;;;13.57;;
8871;SDS011;4472;52.092;9.820;2022-08-20T10:18:35;15.03;;;13.47;;
8871;SDS011;4472;52.092;9.820;2022-08-20T10:21:22;12.60;;;10.83;;
8871;SDS011;4472;52.092;9.820;2022-08-20T10:24:09;15.97;;;14.37;;
8871;SDS011;4472;52.092;9.820;2022-08-20T10:26:58;15.40;;;13.37;;
8871;SDS011;4472;52.092;9.820;2022-08-20T10:29:46;18.77;;;15.97;;
8871;SDS011;4472;52.092;9.820;2022-08-20T10:32:33;17.20;;;15.43;;
8871;SDS011;4472;52.092;9.820;2022-08-20T10:35:21;17.40;;;14.90;;
8871;SDS011;4472;52.092;9.820;2022-08-20T10:38:08;18.63;;;16.67;;
8871;SDS011;4472;52.092;9.820;2022-08-20T10:40:55;14.47;;;12.07;;
8871;SDS011;4472;52.092;9.820;2022-08-20T10:43:44;17.33;;;15.27;;
8871;SDS011;4472;52.092;9.820;2022-08-20T10:46:31;16.77;;;13.17;;
8871;SDS011;4472;52.092;9.820;2022-08-20T10:49:18;16.50;;;13.60;;
8871;SDS011;4472;52.092;9.820;2022-08-20T10:52:06;13.60;;;11.67;;
8871;SDS011;4472;52.092;9.820;2022-08-20T10:54:53;14.23;;;12.83;;
8871;SDS011;4472;52.092;9.820;2022-08-20T10:57:41;15.77;;;13.83;;
8871;SDS011;4472;52.092;9.820;2022-08-20T11:00:30;13.47;;;12.07;;
8871;SDS011;4472;52.092;9.820;2022-08-20T11:03:17;14.40;;;12.80;;
8871;SDS011;4472;52.092;9.820;2022-08-20T11:06:05;13.97;;;12.47;;
8871;SDS011;4472;52.092;9.820;2022-08-20T11:08:54;12.50;;;11.23;;
8871;SDS011;4472;52.092;9.820;2022-08-20T11:11:41;14.37;;;12.87;;
8871;SDS011;4472;52.092;9.820;2022-08-20T11:14:28;11.80;;;10.53;;
8871;SDS011;4472;52.092;9.820;2022-08-20T11:17:19;12.67;;;11.23;;
8871;SDS011;4472;52.092;9.820;2022-08-20T11:20:07;12.40;;;11.10;;
8871;SDS011;4472;52.092;9.820;2022-08-20T11:22:56;11.27;;;9.30;;
8871;SDS011;4472;52.092;9.820;2022-08-20T11:25:47;12.57;;;10.13;;
8871;SDS011;4472;52.092;9.820;2022-08-20T11:28:34;12.73;;;10.83;;
8871;SDS011;4472;52.092;9.820;2022-08-20T11:31:22;10.50;;;9.50;;
8871;SDS011;4472;52.092;9.820;2022-08-20T11:34:10;12.13;;;10.50;;
8871;SDS011;4472;52.092;9.820;2022-08-20T11:36:57;20.27;;;12.40;;
8871;SDS011;4472;52.092;9.820;2022-08-20T11:39:44;15.67;;;13.43;;
8871;SDS011;4472;52.092;9.820;2022-08-20T11:42:32;11.07;;;9.97;;
8871;SDS011;4472;52.092;9.820;2022-08-20T11:45:19;11.63;;;10.27;;
8871;SDS011;4472;52.092;9.820;2022-08-20T11:48:06;12.50;;;11.20;;
8871;SDS011;4472;52.092;9.820;2022-08-20T11:50:55;14.33;;;12.83;;
8871;SDS011;4472;52.092;9.820;2022-08-20T11:53:42;12.47;;;11.17;;
8871;SDS011;4472;52.092;9.820;2022-08-20T11:56:29;9.87;;;8.97;;
8871;SDS011;4472;52.092;9.820;2022-08-20T11:59:17;8.00;;;7.27;;
8871;SDS011;4472;52.092;9.820;2022-08-20T12:02:04;6.27;;;5.77;;
8871;SDS011;4472;52.092;9.820;2022-08-20T12:04:51;5.50;;;4.63;;
8871;SDS011;4472;52.092;9.820;2022-08-20T12:07:40;6.63;;;5.50;;
8871;SDS011;4472;52.092;9.820;2022-08-20T12:10:27;5.60;;;3.80;;
8871;SDS011;4472;52.092;9.820;2022-08-20T12:13:15;3.90;;;3.60;;
8871;SDS011;4472;52.092;9.820;2022-08-20T12:16:02;2.93;;;2.73;;
8871;SDS011;4472;52.092;9.820;2022-08-20T12:18:50;3.33;;;3.00;;
8871;SDS011;4472;52.092;9.820;2022-08-20T12:21:37;3.03;;;2.57;;
8871;SDS011;4472;52.092;9.820;2022-08-20T12:24:26;2.87;;;2.67;;
8871;SDS011;4472;52.092;9.820;2022-08-20T12:27:15;2.53;;;2.33;;
8871;SDS011;4472;52.092;9.820;2022-08-20T12:30:05;3.50;;;3.00;;
8871;SDS011;4472;52.092;9.820;2022-08-20T12:32:53;3.70;;;3.40;;
8871;SDS011;4472;52.092;9.820;2022-08-20T12:35:41;3.60;;;3.30;;
8871;SDS011;4472;52.092;9.820;2022-08-20T12:38:28;4.57;;;4.20;;
8871;SDS011;4472;52.092;9.820;2022-08-20T12:41:18;4.57;;;3.50;;
8871;SDS011;4472;52.092;9.820;2022-08-20T12:44:05;4.07;;;3.77;;
8871;SDS011;4472;52.092;9.820;2022-08-20T12:47:03;3.03;;;2.83;;
8871;SDS011;4472;52.092;9.820;2022-08-20T12:49:52;4.63;;;4.33;;
8871;SDS011;4472;52.092;9.820;2022-08-20T12:52:41;3.73;;;3.30;;
8871;SDS011;4472;52.092;9.820;2022-08-20T12:55:29;3.40;;;3.20;;
8871;SDS011;4472;52.092;9.820;2022-08-20T12:58:18;3.67;;;3.10;;
8871;SDS011;4472;52.092;9.820;2022-08-20T13:01:05;4.87;;;4.47;;
8871;SDS011;4472;52.092;9.820;2022-08-20T13:03:52;3.70;;;3.43;;
8871;SDS011;4472;52.092;9.820;2022-08-20T13:06:39;3.20;;;3.00;;
8871;SDS011;4472;52.092;9.820;2022-08-20T13:09:26;3.53;;;3.23;;
8871;SDS011;4472;52.092;9.820;2022-08-20T13:12:14;3.47;;;2.70;;
8871;SDS011;4472;52.092;9.820;2022-08-20T13:15:02;3.03;;;2.80;;
8871;SDS011;4472;52.092;9.820;2022-08-20T13:17:50;2.60;;;2.50;;
8871;SDS011;4472;52.092;9.820;2022-08-20T13:20:39;2.33;;;2.23;;
8871;SDS011;4472;52.092;9.820;2022-08-20T13:23:26;3.00;;;2.80;;
8871;SDS011;4472;52.092;9.820;2022-08-20T13:26:13;2.80;;;2.70;;
8871;SDS011;4472;52.092;9.820;2022-08-20T13:29:00;3.97;;;3.67;;
8871;SDS011;4472;52.092;9.820;2022-08-20T13:31:49;4.13;;;3.73;;
8871;SDS011;4472;52.092;9.820;2022-08-20T13:34:36;4.60;;;4.20;;
8871;SDS011;4472;52.092;9.820;2022-08-20T13:37:24;4.43;;;4.13;;
8871;SDS011;4472;52.092;9.820;2022-08-20T13:40:13;4.80;;;4.40;;
8871;SDS011;4472;52.092;9.820;2022-08-20T13:43:00;5.10;;;4.70;;
8871;SDS011;4472;52.092;9.820;2022-08-20T13:45:48;4.20;;;3.83;;
8871;SDS011;4472;52.092;9.820;2022-08-20T13:48:37;4.63;;;4.33;;
8871;SDS011;4472;52.092;9.820;2022-08-20T13:51:24;4.73;;;4.43;;
8871;SDS011;4472;52.092;9.820;2022-08-20T13:54:11;5.30;;;4.90;;
8871;SDS011;4472;52.092;9.820;2022-08-20T13:57:02;5.10;;;4.80;;
8871;SDS011;4472;52.092;9.820;2022-08-20T13:59:55;5.33;;;4.90;;
8871;SDS011;4472;52.092;9.820;2022-08-20T14:02:43;5.17;;;4.77;;
8871;SDS011;4472;52.092;9.820;2022-08-20T14:05:32;5.67;;;5.10;;
8871;SDS011;4472;52.092;9.820;2022-08-20T14:08:21;5.27;;;4.87;;
8871;SDS011;4472;52.092;9.820;2022-08-20T14:11:09;6.00;;;5.40;;
8871;SDS011;4472;52.092;9.820;2022-08-20T14:13:56;5.97;;;5.47;;
8871;SDS011;4472;52.092;9.820;2022-08-20T14:16:43;5.17;;;4.67;;
8871;SDS011;4472;52.092;9.820;2022-08-20T14:19:30;5.50;;;5.10;;
8871;SDS011;4472;52.092;9.820;2022-08-20T14:22:19;5.97;;;5.47;;
8871;SDS011;4472;52.092;9.820;2022-08-20T14:25:08;6.00;;;5.50;;
8871;SDS011;4472;52.092;9.820;2022-08-20T14:27:57;5.33;;;4.73;;
8871;SDS011;4472;52.092;9.820;2022-08-20T14:30:45;6.37;;;5.77;;
8871;SDS011;4472;52.092;9.820;2022-08-20T14:33:33;6.37;;;5.77;;
8871;SDS011;4472;52.092;9.820;2022-08-20T14:36:20;10.93;;;6.00;;
8871;SDS011;4472;52.092;9.820;2022-08-20T14:39:08;6.60;;;6.00;;
8871;SDS011;4472;52.092;9.820;2022-08-20T14:41:56;5.20;;;4.80;;
8871;SDS011;4472;52.092;9.820;2022-08-20T14:44:43;5.53;;;5.03;;
8871;SDS011;4472;52.092;9.820;2022-08-20T14:47:32;4.80;;;4.50;;
8871;SDS011;4472;52.092;9.820;2022-08-20T14:50:22;4.97;;;4.60;;
8871;SDS011;4472;52.092;9.820;2022-08-20T14:53:10;8.97;;;5.57;;
8871;SDS011;4472;52.092;9.820;2022-08-20T14:55:59;4.53;;;4.13;;
8871;SDS011;4472;52.092;9.820;2022-08-20T14:58:46;8.17;;;4.97;;
8871;SDS011;4472;52.092;9.820;2022-08-20T15:01:35;6.00;;;5.37;;
8871;SDS011;4472;52.092;9.820;2022-08-20T15:04:22;4.80;;;4.20;;
8871;SDS011;4472;52.092;9.820;2022-08-20T15:07:13;4.10;;;3.80;;
8871;SDS011;4472;52.092;9.820;2022-08-20T15:10:02;4.40;;;4.03;;
8871;SDS011;4472;52.092;9.820;2022-08-20T15:12:52;4.43;;;4.13;;
8871;SDS011;4472;52.092;9.820;2022-08-20T15:15:39;4.80;;;4.40;;
8871;SDS011;4472;52.092;9.820;2022-08-20T15:18:27;5.47;;;4.27;;
8871;SDS011;4472;52.092;9.820;2022-08-20T15:21:14;4.53;;;4.20;;
8871;SDS011;4472;52.092;9.820;2022-08-20T15:24:01;4.30;;;3.80;;
8871;SDS011;4472;52.092;9.820;2022-08-20T15:26:49;3.47;;;3.17;;
8871;SDS011;4472;52.092;9.820;2022-08-20T15:29:37;4.90;;;3.30;;
8871;SDS011;4472;52.092;9.820;2022-08-20T15:32:24;4.10;;;3.70;;
8871;SDS011;4472;52.092;9.820;2022-08-20T15:35:12;3.83;;;3.40;;
8871;SDS011;4472;52.092;9.820;2022-08-20T15:37:59;6.20;;;4.13;;
8871;SDS011;4472;52.092;9.820;2022-08-20T15:40:46;4.30;;;4.00;;
8871;SDS011;4472;52.092;9.820;2022-08-20T15:43:33;4.33;;;3.80;;
8871;SDS011;4472;52.092;9.820;2022-08-20T15:46:22;5.40;;;3.60;;
8871;SDS011;4472;52.092;9.820;2022-08-20T15:49:10;4.13;;;3.73;;
8871;SDS011;4472;52.092;9.820;2022-08-20T15:51:58;4.17;;;3.77;;
8871;SDS011;4472;52.092;9.820;2022-08-20T15:54:45;3.97;;;3.60;;
8871;SDS011;4472;52.092;9.820;2022-08-20T15:57:40;4.37;;;3.97;;
8871;SDS011;4472;52.092;9.820;2022-08-20T16:00:36;4.90;;;4.10;;
8871;SDS011;4472;52.092;9.820;2022-08-20T16:03:33;5.20;;;4.00;;
8871;SDS011;4472;52.092;9.820;2022-08-20T16:06:27;4.53;;;3.77;;
8871;SDS011;4472;52.092;9.820;2022-08-20T16:09:23;4.77;;;4.30;;
8871;SDS011;4472;52.092;9.820;2022-08-20T16:12:26;5.50;;;4.30;;
8871;SDS011;4472;52.092;9.820;2022-08-20T16:15:19;4.90;;;4.40;;
8871;SDS011;4472;52.092;9.820;2022-08-20T16:18:11;4.60;;;4.00;;
8871;SDS011;4472;52.092;9.820;2022-08-20T16:21:06;3.00;;;2.80;;
8871;SDS011;4472;52.092;9.820;2022-08-20T16:23:55;6.40;;;4.30;;
8871;SDS011;4472;52.092;9.820;2022-08-20T16:26:46;4.37;;;4.07;;
8871;SDS011;4472;52.092;9.820;2022-08-20T16:29:49;3.80;;;3.57;;
8871;SDS011;4472;52.092;9.820;2022-08-20T16:32:42;4.30;;;3.90;;
8871;SDS011;4472;52.092;9.820;2022-08-20T16:35:33;4.20;;;3.83;;
8871;SDS011;4472;52.092;9.820;2022-08-20T16:38:25;5.93;;;4.77;;
8871;SDS011;4472;52.092;9.820;2022-08-20T16:41:25;7.83;;;5.30;;
8871;SDS011;4472;52.092;9.820;2022-08-20T16:44:19;4.17;;;3.77;;
8871;SDS011;4472;52.092;9.820;2022-08-20T16:47:14;3.87;;;3.47;;
8871;SDS011;4472;52.092;9.820;2022-08-20T16:50:04;4.40;;;4.00;;
8871;SDS011;4472;52.092;9.820;2022-08-20T16:52:55;4.50;;;4.10;;
8871;SDS011;4472;52.092;9.820;2022-08-20T16:55:44;4.40;;;4.10;;
8871;SDS011;4472;52.092;9.820;2022-08-20T16:58:31;4.37;;;3.97;;
8871;SDS011;4472;52.092;9.820;2022-08-20T17:01:18;5.87;;;4.20;;
8871;SDS011;4472;52.092;9.820;2022-08-20T17:04:18;4.83;;;3.60;;
8871;SDS011;4472;52.092;9.820;2022-08-20T17:07:06;3.70;;;3.40;;
8871;SDS011;4472;52.092;9.820;2022-08-20T17:09:56;3.83;;;3.60;;
8871;SDS011;4472;52.092;9.820;2022-08-20T17:12:57;5.00;;;3.87;;
8871;SDS011;4472;52.092;9.820;2022-08-20T17:15:51;3.50;;;3.30;;
8871;SDS011;4472;52.092;9.820;2022-08-20T17:18:40;5.07;;;3.77;;
8871;SDS011;4472;52.092;9.820;2022-08-20T17:21:29;3.63;;;3.33;;
8871;SDS011;4472;52.092;9.820;2022-08-20T17:24:21;3.90;;;3.60;;